sensor_id;sensor_type;location;lat;lon;timestamp;temperature;humidity
4739;DHT22;2383;48.632;10.156;2023-03-23T00:03:57;9.10;92.00
4739;DHT22;2383;48.632;10.156;2023-03-23T00:07:58;9.10;92.00
4739;DHT22;2383;48.632;10.156;2023-03-23T00:12:02;9.00;92.20
4739;DHT22;2383;48.632;10.156;2023-03-23T00:16:05;9.10;92.20
4739;DHT22;2383;48.632;10.156;2023-03-23T00:20:13;9.00;92.10
4739;DHT22;2383;48.632;10.156;2023-03-23T00:24:18;9.00;92.20
4739;DHT22;2383;48.632;10.156;2023-03-23T00:28:20;9.10;92.30
4739;DHT22;2383;48.632;10.156;2023-03-23T00:32:25;9.10;92.20
4739;DHT22;2383;48.632;10.156;2023-03-23T00:36:28;8.80;92.40
4739;DHT22;2383;48.632;10.156;2023-03-23T00:40:29;8.90;92.60
4739;DHT22;2383;48.632;10.156;2023-03-23T00:44:31;9.10;92.40
4739;DHT22;2383;48.632;10.156;2023-03-23T00:48:32;9.00;92.40
4739;DHT22;2383;48.632;10.156;2023-03-23T00:52:33;9.10;92.30
4739;DHT22;2383;48.632;10.156;2023-03-23T00:56:34;9.00;92.30
4739;DHT22;2383;48.632;10.156;2023-03-23T01:00:36;8.80;92.50
4739;DHT22;2383;48.632;10.156;2023-03-23T01:04:39;8.90;92.40
4739;DHT22;2383;48.632;10.156;2023-03-23T01:08:41;8.90;92.20
4739;DHT22;2383;48.632;10.156;2023-03-23T01:12:45;8.90;92.30
4739;DHT22;2383;48.632;10.156;2023-03-23T01:16:46;9.00;92.50
4739;DHT22;2383;48.632;10.156;2023-03-23T01:20:47;9.00;92.80
4739;DHT22;2383;48.632;10.156;2023-03-23T01:24:48;9.10;92.90
4739;DHT22;2383;48.632;10.156;2023-03-23T01:28:49;9.10;93.20
4739;DHT22;2383;48.632;10.156;2023-03-23T01:32:51;8.60;92.70
4739;DHT22;2383;48.632;10.156;2023-03-23T01:36:52;8.60;93.10
4739;DHT22;2383;48.632;10.156;2023-03-23T01:40:53;8.70;93.10
4739;DHT22;2383;48.632;10.156;2023-03-23T01:48:56;9.10;93.20
4739;DHT22;2383;48.632;10.156;2023-03-23T01:52:59;8.70;93.20
4739;DHT22;2383;48.632;10.156;2023-03-23T01:57:07;9.00;93.20
4739;DHT22;2383;48.632;10.156;2023-03-23T02:01:12;9.20;93.20
4739;DHT22;2383;48.632;10.156;2023-03-23T02:05:19;9.30;93.40
4739;DHT22;2383;48.632;10.156;2023-03-23T02:09:22;9.40;93.60
4739;DHT22;2383;48.632;10.156;2023-03-23T02:13:24;9.40;94.00
4739;DHT22;2383;48.632;10.156;2023-03-23T02:21:55;9.40;94.10
4739;DHT22;2383;48.632;10.156;2023-03-23T02:26:19;9.30;94.40
4739;DHT22;2383;48.632;10.156;2023-03-23T02:34:42;9.40;94.10
4739;DHT22;2383;48.632;10.156;2023-03-23T02:39:12;9.40;94.30
4739;DHT22;2383;48.632;10.156;2023-03-23T02:43:14;9.50;94.50
4739;DHT22;2383;48.632;10.156;2023-03-23T02:47:21;9.40;94.40
4739;DHT22;2383;48.632;10.156;2023-03-23T02:51:24;9.00;94.70
4739;DHT22;2383;48.632;10.156;2023-03-23T02:55:27;9.00;94.80
4739;DHT22;2383;48.632;10.156;2023-03-23T02:59:29;9.20;94.90
4739;DHT22;2383;48.632;10.156;2023-03-23T03:03:30;9.30;94.80
4739;DHT22;2383;48.632;10.156;2023-03-23T03:11:53;9.40;94.80
4739;DHT22;2383;48.632;10.156;2023-03-23T03:16:03;9.40;94.90
4739;DHT22;2383;48.632;10.156;2023-03-23T03:20:07;9.50;95.00
4739;DHT22;2383;48.632;10.156;2023-03-23T03:24:15;9.40;95.20
4739;DHT22;2383;48.632;10.156;2023-03-23T03:28:21;9.60;95.30
4739;DHT22;2383;48.632;10.156;2023-03-23T03:32:31;9.40;95.50
4739;DHT22;2383;48.632;10.156;2023-03-23T03:36:35;9.20;95.70
4739;DHT22;2383;48.632;10.156;2023-03-23T03:40:40;9.10;95.80
4739;DHT22;2383;48.632;10.156;2023-03-23T03:44:41;9.30;95.60
4739;DHT22;2383;48.632;10.156;2023-03-23T03:48:42;9.40;95.50
4739;DHT22;2383;48.632;10.156;2023-03-23T03:52:43;9.50;95.50
4739;DHT22;2383;48.632;10.156;2023-03-23T03:56:44;9.50;95.40
4739;DHT22;2383;48.632;10.156;2023-03-23T04:01:04;9.40;95.30
4739;DHT22;2383;48.632;10.156;2023-03-23T04:05:10;9.00;95.10
4739;DHT22;2383;48.632;10.156;2023-03-23T04:09:12;8.90;95.00
4739;DHT22;2383;48.632;10.156;2023-03-23T04:13:14;9.00;94.90
4739;DHT22;2383;48.632;10.156;2023-03-23T04:17:34;9.30;94.60
4739;DHT22;2383;48.632;10.156;2023-03-23T04:21:35;9.50;94.60
4739;DHT22;2383;48.632;10.156;2023-03-23T04:25:36;9.60;94.60
4739;DHT22;2383;48.632;10.156;2023-03-23T04:29:38;9.60;94.70
4739;DHT22;2383;48.632;10.156;2023-03-23T04:34:07;9.70;94.40
4739;DHT22;2383;48.632;10.156;2023-03-23T04:38:15;9.80;94.20
4739;DHT22;2383;48.632;10.156;2023-03-23T04:42:19;9.90;94.30
4739;DHT22;2383;48.632;10.156;2023-03-23T04:46:22;9.90;94.10
4739;DHT22;2383;48.632;10.156;2023-03-23T04:50:28;9.40;94.10
4739;DHT22;2383;48.632;10.156;2023-03-23T04:54:33;9.40;94.40
4739;DHT22;2383;48.632;10.156;2023-03-23T04:58:35;9.60;94.30
4739;DHT22;2383;48.632;10.156;2023-03-23T05:02:50;9.60;94.30
4739;DHT22;2383;48.632;10.156;2023-03-23T05:06:53;9.50;94.40
4739;DHT22;2383;48.632;10.156;2023-03-23T05:11:00;9.50;94.60
4739;DHT22;2383;48.632;10.156;2023-03-23T05:15:07;9.60;94.50
4739;DHT22;2383;48.632;10.156;2023-03-23T05:19:09;9.80;94.40
4739;DHT22;2383;48.632;10.156;2023-03-23T05:23:11;9.90;94.40
4739;DHT22;2383;48.632;10.156;2023-03-23T05:27:13;9.90;94.30
4739;DHT22;2383;48.632;10.156;2023-03-23T05:31:21;10.00;94.40
4739;DHT22;2383;48.632;10.156;2023-03-23T05:35:22;10.00;94.40
4739;DHT22;2383;48.632;10.156;2023-03-23T05:39:26;10.00;94.50
4739;DHT22;2383;48.632;10.156;2023-03-23T05:43:46;10.00;94.50
4739;DHT22;2383;48.632;10.156;2023-03-23T05:48:07;10.00;94.50
4739;DHT22;2383;48.632;10.156;2023-03-23T05:52:08;10.10;94.40
4739;DHT22;2383;48.632;10.156;2023-03-23T05:56:08;10.10;94.30
4739;DHT22;2383;48.632;10.156;2023-03-23T06:00:27;10.10;94.30
4739;DHT22;2383;48.632;10.156;2023-03-23T06:04:42;10.10;94.20
4739;DHT22;2383;48.632;10.156;2023-03-23T06:09:00;10.20;94.40
4739;DHT22;2383;48.632;10.156;2023-03-23T06:13:16;10.20;94.60
4739;DHT22;2383;48.632;10.156;2023-03-23T06:17:21;10.20;94.60
4739;DHT22;2383;48.632;10.156;2023-03-23T06:21:26;10.30;94.60
4739;DHT22;2383;48.632;10.156;2023-03-23T06:25:31;10.30;94.40
4739;DHT22;2383;48.632;10.156;2023-03-23T06:29:33;10.40;94.40
4739;DHT22;2383;48.632;10.156;2023-03-23T06:33:37;10.40;94.30
4739;DHT22;2383;48.632;10.156;2023-03-23T06:37:58;10.50;94.40
4739;DHT22;2383;48.632;10.156;2023-03-23T06:42:12;10.60;94.30
4739;DHT22;2383;48.632;10.156;2023-03-23T06:46:19;10.60;94.30
4739;DHT22;2383;48.632;10.156;2023-03-23T06:50:29;10.60;94.10
4739;DHT22;2383;48.632;10.156;2023-03-23T06:54:30;10.40;93.70
4739;DHT22;2383;48.632;10.156;2023-03-23T06:58:33;10.40;94.00
4739;DHT22;2383;48.632;10.156;2023-03-23T07:02:35;10.60;94.00
4739;DHT22;2383;48.632;10.156;2023-03-23T07:06:36;11.00;93.70
4739;DHT22;2383;48.632;10.156;2023-03-23T07:10:41;11.10;93.70
4739;DHT22;2383;48.632;10.156;2023-03-23T07:14:44;11.40;93.60
4739;DHT22;2383;48.632;10.156;2023-03-23T07:18:45;11.20;93.10
4739;DHT22;2383;48.632;10.156;2023-03-23T07:22:47;11.20;93.10
4739;DHT22;2383;48.632;10.156;2023-03-23T07:27:04;11.40;93.40
4739;DHT22;2383;48.632;10.156;2023-03-23T07:31:07;11.40;92.40
4739;DHT22;2383;48.632;10.156;2023-03-23T07:35:11;11.60;92.60
4739;DHT22;2383;48.632;10.156;2023-03-23T07:39:31;11.80;92.50
4739;DHT22;2383;48.632;10.156;2023-03-23T07:43:35;11.40;92.40
4739;DHT22;2383;48.632;10.156;2023-03-23T07:47:44;11.50;92.30
4739;DHT22;2383;48.632;10.156;2023-03-23T07:51:46;11.20;91.90
4739;DHT22;2383;48.632;10.156;2023-03-23T07:55:49;11.50;92.10
4739;DHT22;2383;48.632;10.156;2023-03-23T08:00:17;11.70;92.00
4739;DHT22;2383;48.632;10.156;2023-03-23T08:04:22;11.10;91.60
4739;DHT22;2383;48.632;10.156;2023-03-23T08:08:55;11.60;91.80
4739;DHT22;2383;48.632;10.156;2023-03-23T08:13:15;11.90;91.30
4739;DHT22;2383;48.632;10.156;2023-03-23T08:17:49;11.70;92.00
4739;DHT22;2383;48.632;10.156;2023-03-23T08:22:18;11.50;91.80
4739;DHT22;2383;48.632;10.156;2023-03-23T08:26:38;11.90;93.00
4739;DHT22;2383;48.632;10.156;2023-03-23T08:30:57;11.90;92.40
4739;DHT22;2383;48.632;10.156;2023-03-23T08:35:10;11.70;92.40
4739;DHT22;2383;48.632;10.156;2023-03-23T08:39:31;12.10;92.80
4739;DHT22;2383;48.632;10.156;2023-03-23T08:43:45;12.10;92.20
4739;DHT22;2383;48.632;10.156;2023-03-23T08:48:07;12.20;92.20
4739;DHT22;2383;48.632;10.156;2023-03-23T08:52:31;12.30;91.80
4739;DHT22;2383;48.632;10.156;2023-03-23T08:57:01;12.70;91.70
4739;DHT22;2383;48.632;10.156;2023-03-23T09:01:13;12.40;91.30
4739;DHT22;2383;48.632;10.156;2023-03-23T09:05:19;12.30;91.60
4739;DHT22;2383;48.632;10.156;2023-03-23T09:09:57;12.60;91.60
4739;DHT22;2383;48.632;10.156;2023-03-23T09:13:57;12.60;90.70
4739;DHT22;2383;48.632;10.156;2023-03-23T09:17:59;11.90;91.20
4739;DHT22;2383;48.632;10.156;2023-03-23T09:22:01;12.40;91.20
4739;DHT22;2383;48.632;10.156;2023-03-23T09:26:03;12.80;91.10
4739;DHT22;2383;48.632;10.156;2023-03-23T09:30:10;12.50;91.10
4739;DHT22;2383;48.632;10.156;2023-03-23T09:34:12;12.80;90.30
4739;DHT22;2383;48.632;10.156;2023-03-23T09:38:13;12.70;90.70
4739;DHT22;2383;48.632;10.156;2023-03-23T09:46:54;12.80;90.60
4739;DHT22;2383;48.632;10.156;2023-03-23T09:51:14;13.10;90.90
4739;DHT22;2383;48.632;10.156;2023-03-23T09:55:18;13.40;90.50
4739;DHT22;2383;48.632;10.156;2023-03-23T10:03:44;13.80;90.40
4739;DHT22;2383;48.632;10.156;2023-03-23T10:07:45;12.60;90.70
4739;DHT22;2383;48.632;10.156;2023-03-23T10:16:15;12.50;91.50
4739;DHT22;2383;48.632;10.156;2023-03-23T10:24:51;12.60;91.40
4739;DHT22;2383;48.632;10.156;2023-03-23T10:29:16;12.80;91.30
4739;DHT22;2383;48.632;10.156;2023-03-23T10:33:30;12.90;90.90
4739;DHT22;2383;48.632;10.156;2023-03-23T10:37:39;13.50;90.50
4739;DHT22;2383;48.632;10.156;2023-03-23T10:41:42;14.20;90.50
4739;DHT22;2383;48.632;10.156;2023-03-23T10:45:45;14.00;89.10
4739;DHT22;2383;48.632;10.156;2023-03-23T10:49:55;13.50;89.20
4739;DHT22;2383;48.632;10.156;2023-03-23T10:54:00;13.30;89.50
4739;DHT22;2383;48.632;10.156;2023-03-23T11:02:03;13.10;90.00
4739;DHT22;2383;48.632;10.156;2023-03-23T11:06:29;12.60;90.10
4739;DHT22;2383;48.632;10.156;2023-03-23T11:10:47;11.90;90.70
4739;DHT22;2383;48.632;10.156;2023-03-23T11:14:49;12.00;90.60
4739;DHT22;2383;48.632;10.156;2023-03-23T11:18:50;12.90;90.70
4739;DHT22;2383;48.632;10.156;2023-03-23T11:22:53;13.60;90.20
4739;DHT22;2383;48.632;10.156;2023-03-23T11:26:56;13.10;89.60
4739;DHT22;2383;48.632;10.156;2023-03-23T11:31:00;13.10;89.90
4739;DHT22;2383;48.632;10.156;2023-03-23T11:35:05;13.20;90.50
4739;DHT22;2383;48.632;10.156;2023-03-23T11:39:30;13.40;91.30
4739;DHT22;2383;48.632;10.156;2023-03-23T11:43:34;13.50;90.70
4739;DHT22;2383;48.632;10.156;2023-03-23T11:47:49;13.50;91.20
4739;DHT22;2383;48.632;10.156;2023-03-23T11:51:56;13.30;91.60
4739;DHT22;2383;48.632;10.156;2023-03-23T11:56:09;13.60;91.00
4739;DHT22;2383;48.632;10.156;2023-03-23T12:00:17;13.50;91.50
4739;DHT22;2383;48.632;10.156;2023-03-23T12:13:01;14.00;91.80
4739;DHT22;2383;48.632;10.156;2023-03-23T12:17:20;13.70;91.30
4739;DHT22;2383;48.632;10.156;2023-03-23T12:21:52;13.30;90.70
4739;DHT22;2383;48.632;10.156;2023-03-23T12:42:39;14.00;90.60
4739;DHT22;2383;48.632;10.156;2023-03-23T12:55:34;13.00;89.40
4739;DHT22;2383;48.632;10.156;2023-03-23T13:04:15;12.90;88.90
4739;DHT22;2383;48.632;10.156;2023-03-23T13:12:28;13.00;89.50
4739;DHT22;2383;48.632;10.156;2023-03-23T13:16:45;13.10;90.40
4739;DHT22;2383;48.632;10.156;2023-03-23T13:25:00;13.90;88.80
4739;DHT22;2383;48.632;10.156;2023-03-23T13:29:06;13.30;88.10
4739;DHT22;2383;48.632;10.156;2023-03-23T13:33:11;13.90;89.00
4739;DHT22;2383;48.632;10.156;2023-03-23T13:41:19;14.00;88.60
4739;DHT22;2383;48.632;10.156;2023-03-23T13:49:22;13.60;89.10
4739;DHT22;2383;48.632;10.156;2023-03-23T13:53:44;13.30;89.90
4739;DHT22;2383;48.632;10.156;2023-03-23T14:02:32;13.20;89.20
4739;DHT22;2383;48.632;10.156;2023-03-23T14:06:35;13.50;89.40
4739;DHT22;2383;48.632;10.156;2023-03-23T14:10:44;12.90;89.90
4739;DHT22;2383;48.632;10.156;2023-03-23T14:14:51;13.50;89.20
4739;DHT22;2383;48.632;10.156;2023-03-23T14:18:58;13.10;89.30
4739;DHT22;2383;48.632;10.156;2023-03-23T14:23:00;13.30;88.40
4739;DHT22;2383;48.632;10.156;2023-03-23T14:27:08;13.70;88.90
4739;DHT22;2383;48.632;10.156;2023-03-23T14:31:30;13.90;88.30
4739;DHT22;2383;48.632;10.156;2023-03-23T14:35:35;14.00;88.10
4739;DHT22;2383;48.632;10.156;2023-03-23T14:39:36;14.20;89.20
4739;DHT22;2383;48.632;10.156;2023-03-23T14:43:38;14.50;87.80
4739;DHT22;2383;48.632;10.156;2023-03-23T14:47:44;14.60;88.90
4739;DHT22;2383;48.632;10.156;2023-03-23T14:51:53;15.20;87.80
4739;DHT22;2383;48.632;10.156;2023-03-23T14:55:55;15.10;87.60
4739;DHT22;2383;48.632;10.156;2023-03-23T14:59:58;15.10;88.00
4739;DHT22;2383;48.632;10.156;2023-03-23T15:08:11;14.90;88.80
4739;DHT22;2383;48.632;10.156;2023-03-23T15:12:23;14.60;87.50
4739;DHT22;2383;48.632;10.156;2023-03-23T15:16:27;14.50;88.80
4739;DHT22;2383;48.632;10.156;2023-03-23T15:20:47;14.10;88.80
4739;DHT22;2383;48.632;10.156;2023-03-23T15:24:49;14.30;88.50
4739;DHT22;2383;48.632;10.156;2023-03-23T15:29:20;14.60;88.00
4739;DHT22;2383;48.632;10.156;2023-03-23T15:33:22;14.70;88.40
4739;DHT22;2383;48.632;10.156;2023-03-23T15:37:30;14.90;88.40
4739;DHT22;2383;48.632;10.156;2023-03-23T15:41:32;14.70;89.30
4739;DHT22;2383;48.632;10.156;2023-03-23T15:45:36;14.90;89.00
4739;DHT22;2383;48.632;10.156;2023-03-23T15:49:37;15.10;88.80
4739;DHT22;2383;48.632;10.156;2023-03-23T15:53:38;15.10;88.50
4739;DHT22;2383;48.632;10.156;2023-03-23T15:57:40;14.90;89.10
4739;DHT22;2383;48.632;10.156;2023-03-23T16:01:42;14.90;88.80
4739;DHT22;2383;48.632;10.156;2023-03-23T16:05:44;15.00;88.70
4739;DHT22;2383;48.632;10.156;2023-03-23T16:09:47;14.80;89.80
4739;DHT22;2383;48.632;10.156;2023-03-23T16:13:49;14.70;90.20
4739;DHT22;2383;48.632;10.156;2023-03-23T16:17:51;15.00;89.40
4739;DHT22;2383;48.632;10.156;2023-03-23T16:21:53;14.90;90.40
4739;DHT22;2383;48.632;10.156;2023-03-23T16:25:54;14.90;89.90
4739;DHT22;2383;48.632;10.156;2023-03-23T16:29:56;14.90;89.50
4739;DHT22;2383;48.632;10.156;2023-03-23T16:34:05;14.80;90.10
4739;DHT22;2383;48.632;10.156;2023-03-23T16:38:12;14.90;90.20
4739;DHT22;2383;48.632;10.156;2023-03-23T16:42:14;14.70;90.40
4739;DHT22;2383;48.632;10.156;2023-03-23T16:46:16;14.30;90.40
4739;DHT22;2383;48.632;10.156;2023-03-23T16:50:18;14.50;90.00
4739;DHT22;2383;48.632;10.156;2023-03-23T16:54:20;14.50;90.10
4739;DHT22;2383;48.632;10.156;2023-03-23T16:58:22;14.60;90.20
4739;DHT22;2383;48.632;10.156;2023-03-23T17:02:24;14.20;90.00
4739;DHT22;2383;48.632;10.156;2023-03-23T17:06:26;14.20;90.00
4739;DHT22;2383;48.632;10.156;2023-03-23T17:10:28;14.20;90.20
4739;DHT22;2383;48.632;10.156;2023-03-23T17:14:30;14.20;90.10
4739;DHT22;2383;48.632;10.156;2023-03-23T17:18:32;14.10;90.20
4739;DHT22;2383;48.632;10.156;2023-03-23T17:22:35;13.90;90.10
4739;DHT22;2383;48.632;10.156;2023-03-23T17:26:37;14.10;89.90
4739;DHT22;2383;48.632;10.156;2023-03-23T17:30:41;14.10;90.20
4739;DHT22;2383;48.632;10.156;2023-03-23T17:34:43;14.10;90.80
4739;DHT22;2383;48.632;10.156;2023-03-23T17:38:45;14.20;90.60
4739;DHT22;2383;48.632;10.156;2023-03-23T17:42:47;14.20;90.80
4739;DHT22;2383;48.632;10.156;2023-03-23T17:46:49;14.00;90.60
4739;DHT22;2383;48.632;10.156;2023-03-23T17:50:54;14.00;90.50
4739;DHT22;2383;48.632;10.156;2023-03-23T17:54:58;14.00;90.40
4739;DHT22;2383;48.632;10.156;2023-03-23T17:59:00;14.00;90.40
4739;DHT22;2383;48.632;10.156;2023-03-23T18:03:02;14.10;90.60
4739;DHT22;2383;48.632;10.156;2023-03-23T18:07:04;14.10;90.40
4739;DHT22;2383;48.632;10.156;2023-03-23T18:11:07;14.00;90.50
4739;DHT22;2383;48.632;10.156;2023-03-23T18:15:10;14.10;90.70
4739;DHT22;2383;48.632;10.156;2023-03-23T18:19:12;14.10;90.90
4739;DHT22;2383;48.632;10.156;2023-03-23T18:23:14;14.10;91.00
4739;DHT22;2383;48.632;10.156;2023-03-23T18:27:16;14.00;91.30
4739;DHT22;2383;48.632;10.156;2023-03-23T18:31:19;13.90;91.60
4739;DHT22;2383;48.632;10.156;2023-03-23T18:35:21;13.80;91.80
4739;DHT22;2383;48.632;10.156;2023-03-23T18:39:23;13.60;92.00
4739;DHT22;2383;48.632;10.156;2023-03-23T18:43:25;13.60;92.10
4739;DHT22;2383;48.632;10.156;2023-03-23T18:47:27;13.50;92.20
4739;DHT22;2383;48.632;10.156;2023-03-23T18:51:29;13.40;92.30
4739;DHT22;2383;48.632;10.156;2023-03-23T18:55:31;13.20;92.60
4739;DHT22;2383;48.632;10.156;2023-03-23T18:59:33;13.10;92.70
4739;DHT22;2383;48.632;10.156;2023-03-23T19:03:38;13.00;93.30
4739;DHT22;2383;48.632;10.156;2023-03-23T19:07:40;12.90;93.10
4739;DHT22;2383;48.632;10.156;2023-03-23T19:11:45;13.00;93.10
4739;DHT22;2383;48.632;10.156;2023-03-23T19:15:47;13.10;93.10
4739;DHT22;2383;48.632;10.156;2023-03-23T19:19:49;12.90;93.10
4739;DHT22;2383;48.632;10.156;2023-03-23T19:23:52;12.60;93.40
4739;DHT22;2383;48.632;10.156;2023-03-23T19:27:54;12.80;93.30
4739;DHT22;2383;48.632;10.156;2023-03-23T19:31:58;12.90;93.30
4739;DHT22;2383;48.632;10.156;2023-03-23T19:36:00;12.90;93.40
4739;DHT22;2383;48.632;10.156;2023-03-23T19:40:13;13.00;93.20
4739;DHT22;2383;48.632;10.156;2023-03-23T19:44:35;13.10;93.10
4739;DHT22;2383;48.632;10.156;2023-03-23T19:48:37;13.30;93.30
4739;DHT22;2383;48.632;10.156;2023-03-23T19:52:40;13.30;93.20
4739;DHT22;2383;48.632;10.156;2023-03-23T19:56:42;13.40;93.40
4739;DHT22;2383;48.632;10.156;2023-03-23T20:00:44;13.40;93.40
4739;DHT22;2383;48.632;10.156;2023-03-23T20:04:46;13.40;93.50
4739;DHT22;2383;48.632;10.156;2023-03-23T20:08:48;13.40;93.50
4739;DHT22;2383;48.632;10.156;2023-03-23T20:12:50;13.30;93.70
4739;DHT22;2383;48.632;10.156;2023-03-23T20:16:52;13.30;93.90
4739;DHT22;2383;48.632;10.156;2023-03-23T20:21:20;13.30;94.20
4739;DHT22;2383;48.632;10.156;2023-03-23T20:25:24;13.30;94.40
4739;DHT22;2383;48.632;10.156;2023-03-23T20:29:26;13.20;94.50
4739;DHT22;2383;48.632;10.156;2023-03-23T20:33:33;13.20;94.50
4739;DHT22;2383;48.632;10.156;2023-03-23T20:37:37;13.10;94.40
4739;DHT22;2383;48.632;10.156;2023-03-23T20:41:39;13.00;94.30
4739;DHT22;2383;48.632;10.156;2023-03-23T20:45:41;13.00;94.40
4739;DHT22;2383;48.632;10.156;2023-03-23T20:49:44;13.00;94.40
4739;DHT22;2383;48.632;10.156;2023-03-23T20:53:54;13.00;94.00
4739;DHT22;2383;48.632;10.156;2023-03-23T20:57:56;12.90;93.90
4739;DHT22;2383;48.632;10.156;2023-03-23T21:01:58;13.00;93.90
4739;DHT22;2383;48.632;10.156;2023-03-23T21:06:00;13.10;94.00
4739;DHT22;2383;48.632;10.156;2023-03-23T21:10:04;13.10;94.00
4739;DHT22;2383;48.632;10.156;2023-03-23T21:14:06;13.10;94.30
4739;DHT22;2383;48.632;10.156;2023-03-23T21:18:09;13.00;94.30
4739;DHT22;2383;48.632;10.156;2023-03-23T21:22:12;13.00;94.60
4739;DHT22;2383;48.632;10.156;2023-03-23T21:26:15;12.90;94.40
4739;DHT22;2383;48.632;10.156;2023-03-23T21:30:19;12.90;94.40
4739;DHT22;2383;48.632;10.156;2023-03-23T21:34:21;12.80;94.40
4739;DHT22;2383;48.632;10.156;2023-03-23T21:38:23;12.80;94.40
4739;DHT22;2383;48.632;10.156;2023-03-23T21:42:27;12.80;94.30
4739;DHT22;2383;48.632;10.156;2023-03-23T21:46:31;12.90;94.50
4739;DHT22;2383;48.632;10.156;2023-03-23T21:50:35;12.80;94.70
4739;DHT22;2383;48.632;10.156;2023-03-23T21:54:38;12.70;94.90
4739;DHT22;2383;48.632;10.156;2023-03-23T21:58:41;12.70;95.40
4739;DHT22;2383;48.632;10.156;2023-03-23T22:02:43;12.70;95.40
4739;DHT22;2383;48.632;10.156;2023-03-23T22:06:45;12.70;96.00
4739;DHT22;2383;48.632;10.156;2023-03-23T22:10:48;12.60;95.80
4739;DHT22;2383;48.632;10.156;2023-03-23T22:15:05;12.40;96.10
4739;DHT22;2383;48.632;10.156;2023-03-23T22:19:08;12.20;96.20
4739;DHT22;2383;48.632;10.156;2023-03-23T22:23:10;12.20;96.20
4739;DHT22;2383;48.632;10.156;2023-03-23T22:27:12;12.30;96.20
4739;DHT22;2383;48.632;10.156;2023-03-23T22:31:17;12.30;96.20
4739;DHT22;2383;48.632;10.156;2023-03-23T22:35:19;12.40;96.30
4739;DHT22;2383;48.632;10.156;2023-03-23T22:39:21;12.40;96.20
4739;DHT22;2383;48.632;10.156;2023-03-23T22:43:23;12.30;96.20
4739;DHT22;2383;48.632;10.156;2023-03-23T22:47:25;12.20;96.50
4739;DHT22;2383;48.632;10.156;2023-03-23T22:51:27;12.20;96.60
4739;DHT22;2383;48.632;10.156;2023-03-23T22:55:29;12.10;96.70
4739;DHT22;2383;48.632;10.156;2023-03-23T22:59:32;12.10;96.50
4739;DHT22;2383;48.632;10.156;2023-03-23T23:03:34;12.10;96.60
4739;DHT22;2383;48.632;10.156;2023-03-23T23:07:37;12.10;96.80
4739;DHT22;2383;48.632;10.156;2023-03-23T23:11:39;12.10;96.90
4739;DHT22;2383;48.632;10.156;2023-03-23T23:15:43;12.00;96.90
4739;DHT22;2383;48.632;10.156;2023-03-23T23:19:46;12.00;97.00
4739;DHT22;2383;48.632;10.156;2023-03-23T23:23:48;11.90;97.20
4739;DHT22;2383;48.632;10.156;2023-03-23T23:27:52;11.90;97.20
4739;DHT22;2383;48.632;10.156;2023-03-23T23:31:54;11.90;97.10
4739;DHT22;2383;48.632;10.156;2023-03-23T23:35:56;12.00;97.10
4739;DHT22;2383;48.632;10.156;2023-03-23T23:39:58;11.90;97.20
4739;DHT22;2383;48.632;10.156;2023-03-23T23:44:00;11.90;97.00
4739;DHT22;2383;48.632;10.156;2023-03-23T23:48:02;11.90;97.00
4739;DHT22;2383;48.632;10.156;2023-03-23T23:52:06;11.90;96.90
4739;DHT22;2383;48.632;10.156;2023-03-23T23:56:10;11.90;96.80
